Time;durP1;ratioP1;P1;durP2;ratioP2;P2;SDS_P1;SDS_P2;PMS_P1;PMS_P2;Temp;Humidity;BMP_temperature;BMP_pressure;BME280_temperature;BME280_humidity;BME280_pressure;Samples;Min_cycle;Max_cycle;Signal;HPM_P1;HPM_P2
2021/04/23 00:01:35;;;;;;;12.37;5.60;;;4.40;99.90;;;;;;5038121;28;20233;-69
2021/04/23 00:04:04;;;;;;;14.83;6.60;;;4.30;99.90;;;;;;5030505;28;20358;-69
2021/04/23 00:06:35;;;;;;;13.70;5.93;;;4.30;99.90;;;;;;5052947;28;20189;-69
2021/04/23 00:09:09;;;;;;;22.93;6.67;;;4.30;99.90;;;;;;5039653;28;20187;-68
2021/04/23 00:11:42;;;;;;;9.13;5.57;;;4.30;99.90;;;;;;5037470;28;20212;-68
2021/04/23 00:14:11;;;;;;;11.03;5.40;;;4.20;99.90;;;;;;5035407;28;20481;-68
2021/04/23 00:16:41;;;;;;;15.40;6.43;;;4.30;99.90;;;;;;5036621;28;20256;-69
2021/04/23 00:19:10;;;;;;;19.57;5.30;;;4.40;99.90;;;;;;5039088;28;20192;-68
2021/04/23 00:21:38;;;;;;;10.93;5.20;;;4.40;99.90;;;;;;5037575;28;20223;-69
2021/04/23 00:24:06;;;;;;;14.70;5.33;;;4.30;99.90;;;;;;5034359;28;20173;-68
2021/04/23 00:26:34;;;;;;;13.90;5.80;;;4.40;99.90;;;;;;5034184;28;20398;-68
2021/04/23 00:29:01;;;;;;;11.87;5.83;;;4.40;99.90;;;;;;5042120;28;20185;-69
2021/04/23 00:31:29;;;;;;;13.30;5.23;;;4.30;99.90;;;;;;5034098;28;20198;-69
2021/04/23 00:34:00;;;;;;;12.83;4.97;;;4.30;99.90;;;;;;5033237;28;20274;-69
2021/04/23 00:36:27;;;;;;;9.93;5.10;;;4.20;99.90;;;;;;5040512;28;20197;-68
2021/04/23 00:38:55;;;;;;;7.53;4.87;;;4.20;99.90;;;;;;5032153;28;20182;-68
2021/04/23 00:41:28;;;;;;;14.33;5.00;;;4.00;99.90;;;;;;5052851;28;20391;-69
2021/04/23 00:43:57;;;;;;;17.40;5.47;;;3.90;99.90;;;;;;5036059;28;20240;-68
2021/04/23 00:46:25;;;;;;;20.57;5.47;;;3.80;99.90;;;;;;5035602;28;20181;-69
2021/04/23 00:48:53;;;;;;;7.13;4.60;;;3.80;99.90;;;;;;5035972;28;20174;-69
2021/04/23 00:51:25;;;;;;;15.40;5.13;;;3.70;99.90;;;;;;5037147;28;20178;-69
2021/04/23 00:53:57;;;;;;;9.53;4.77;;;3.70;99.90;;;;;;5031017;28;20218;-67
2021/04/23 00:56:29;;;;;;;16.27;5.37;;;3.60;99.90;;;;;;5035162;28;20423;-68
2021/04/23 00:59:00;;;;;;;13.60;4.70;;;3.70;99.90;;;;;;5038696;28;20185;-69
2021/04/23 01:01:34;;;;;;;10.97;4.50;;;3.70;99.90;;;;;;5037062;28;20193;-68
2021/04/23 01:04:04;;;;;;;23.83;5.53;;;3.50;99.90;;;;;;5040004;28;20253;-68
2021/04/23 01:06:53;;;;;;;9.33;4.90;;;3.50;99.90;;;;;;5032256;28;20229;-69
2021/04/23 01:09:22;;;;;;;10.83;5.23;;;3.40;99.90;;;;;;5038936;28;20212;-68
2021/04/23 01:11:51;;;;;;;10.50;5.00;;;3.30;99.90;;;;;;5036147;28;20193;-68
2021/04/23 01:14:19;;;;;;;15.80;5.33;;;3.20;99.90;;;;;;5033213;28;20217;-68
2021/04/23 01:16:47;;;;;;;8.07;4.87;;;3.30;99.90;;;;;;5031593;28;20217;-68
2021/04/23 01:19:18;;;;;;;9.73;5.27;;;3.20;99.90;;;;;;5040881;28;20383;-68
2021/04/23 01:21:47;;;;;;;13.10;5.67;;;3.20;99.90;;;;;;5042800;28;20220;-68
2021/04/23 01:24:18;;;;;;;7.97;5.00;;;3.20;99.90;;;;;;5034135;28;20243;-68
2021/04/23 01:26:48;;;;;;;13.23;5.20;;;3.10;99.90;;;;;;5037257;28;20268;-69
2021/04/23 01:29:17;;;;;;;15.50;5.03;;;3.10;99.90;;;;;;5039996;28;20192;-68
2021/04/23 01:31:47;;;;;;;15.20;5.90;;;3.10;99.90;;;;;;5036575;28;20185;-68
2021/04/23 01:34:17;;;;;;;12.37;5.50;;;3.10;99.90;;;;;;5037640;28;20201;-68
2021/04/23 01:36:46;;;;;;;14.67;5.57;;;3.00;99.90;;;;;;5033633;28;20223;-68
2021/04/23 01:39:17;;;;;;;15.40;5.60;;;3.10;99.90;;;;;;5030609;28;20193;-68
2021/04/23 01:41:47;;;;;;;10.63;5.50;;;3.10;99.90;;;;;;5039904;28;20220;-68
2021/04/23 01:44:15;;;;;;;13.43;5.90;;;3.10;99.90;;;;;;5037593;28;20194;-67
2021/04/23 01:46:43;;;;;;;15.13;6.20;;;3.10;99.90;;;;;;5038453;28;20186;-67
2021/04/23 01:49:14;;;;;;;11.10;6.17;;;3.00;99.90;;;;;;5037575;28;20308;-68
2021/04/23 01:51:44;;;;;;;12.03;5.20;;;3.00;99.90;;;;;;5032977;28;20255;-68
2021/04/23 01:54:13;;;;;;;12.37;5.93;;;2.90;99.90;;;;;;5034814;28;20244;-68
2021/04/23 01:56:41;;;;;;;10.10;5.70;;;2.80;99.90;;;;;;5030126;28;20189;-68
2021/04/23 01:59:09;;;;;;;12.17;5.60;;;2.80;99.90;;;;;;5034390;28;20201;-68
2021/04/23 02:02:14;;;;;;;9.80;5.27;;;2.60;99.90;;;;;;5034161;28;20211;-68
2021/04/23 02:04:45;;;;;;;15.40;6.20;;;2.60;99.90;;;;;;5037478;28;20209;-68
2021/04/23 02:07:16;;;;;;;10.00;5.60;;;2.50;99.90;;;;;;5033374;28;20351;-67
2021/04/23 02:09:45;;;;;;;9.77;5.00;;;2.40;99.90;;;;;;5038484;28;20228;-68
2021/04/23 02:12:12;;;;;;;11.13;6.30;;;2.30;99.90;;;;;;5039249;28;20186;-68
2021/04/23 02:14:40;;;;;;;9.80;5.53;;;2.20;99.90;;;;;;5048322;28;20224;-68
2021/04/23 02:17:08;;;;;;;10.30;5.70;;;2.20;99.90;;;;;;5036272;28;20380;-68
2021/04/23 02:19:36;;;;;;;11.13;5.37;;;2.20;99.90;;;;;;5028876;28;20387;-68
2021/04/23 02:22:04;;;;;;;8.63;5.23;;;2.10;99.90;;;;;;5037715;28;20192;-68
2021/04/23 02:24:31;;;;;;;11.43;6.07;;;2.10;99.90;;;;;;5029657;28;20182;-68
2021/04/23 02:26:59;;;;;;;7.83;5.43;;;2.10;99.90;;;;;;5039046;28;20889;-68
2021/04/23 02:29:27;;;;;;;13.07;5.33;;;2.00;99.90;;;;;;5030794;28;20191;-68
2021/04/23 02:31:55;;;;;;;9.47;5.87;;;2.00;99.90;;;;;;5041712;28;20177;-68
2021/04/23 02:34:25;;;;;;;9.73;5.30;;;1.90;99.90;;;;;;5036311;28;20256;-67
2021/04/23 02:36:53;;;;;;;11.33;5.40;;;1.90;99.90;;;;;;5037619;28;20190;-68
2021/04/23 02:39:21;;;;;;;19.27;5.70;;;1.80;99.90;;;;;;5032229;28;20193;-67
2021/04/23 02:41:51;;;;;;;12.33;6.00;;;1.80;99.90;;;;;;5030847;28;20399;-68
2021/04/23 02:44:20;;;;;;;14.03;5.80;;;1.70;99.90;;;;;;5030993;28;20204;-68
2021/04/23 02:46:48;;;;;;;15.83;5.57;;;1.70;99.90;;;;;;5031656;28;20189;-68
2021/04/23 02:49:16;;;;;;;9.27;5.43;;;1.70;99.90;;;;;;5031951;28;20269;-68
2021/04/23 02:51:47;;;;;;;13.37;6.03;;;1.70;99.90;;;;;;5034876;28;21304;-68
2021/04/23 02:54:16;;;;;;;11.10;5.90;;;1.60;99.90;;;;;;5038859;28;20229;-68
2021/04/23 02:56:43;;;;;;;11.07;6.57;;;1.60;99.90;;;;;;5042781;28;20243;-68
2021/04/23 02:59:11;;;;;;;14.33;6.83;;;1.60;99.90;;;;;;5041559;28;20205;-68
2021/04/23 03:01:49;;;;;;;13.07;6.50;;;1.50;99.90;;;;;;5038633;28;20192;-67
2021/04/23 03:04:20;;;;;;;18.40;6.57;;;1.60;99.90;;;;;;5035961;28;20293;-68
2021/04/23 03:07:14;;;;;;;17.90;6.70;;;1.70;99.90;;;;;;5039028;28;20525;-67
2021/04/23 03:09:42;;;;;;;12.83;6.83;;;1.80;99.90;;;;;;5041609;28;20306;-68
2021/04/23 03:12:10;;;;;;;13.93;6.30;;;1.90;99.90;;;;;;5041248;28;20186;-68
2021/04/23 03:14:37;;;;;;;9.57;6.30;;;1.80;99.90;;;;;;5035776;28;20281;-68
2021/04/23 03:17:05;;;;;;;13.87;6.30;;;1.60;99.90;;;;;;5039954;28;20470;-68
2021/04/23 03:19:33;;;;;;;16.80;6.30;;;1.50;99.90;;;;;;5038601;28;20197;-68
2021/04/23 03:22:00;;;;;;;18.33;6.87;;;1.50;99.90;;;;;;5044389;28;20185;-68
2021/04/23 03:24:28;;;;;;;13.00;6.70;;;1.40;99.90;;;;;;5035131;28;20206;-67
2021/04/23 03:26:55;;;;;;;17.60;6.50;;;1.40;99.90;;;;;;5037161;28;20198;-68
2021/04/23 03:29:22;;;;;;;13.43;6.83;;;1.40;99.90;;;;;;5042418;28;20229;-67
2021/04/23 03:31:50;;;;;;;16.73;6.73;;;1.30;99.90;;;;;;5054801;28;20227;-68
2021/04/23 03:34:18;;;;;;;14.83;6.87;;;1.30;99.90;;;;;;5034346;28;20277;-68
2021/04/23 03:36:46;;;;;;;13.67;6.80;;;1.30;99.90;;;;;;5039207;28;20189;-68
2021/04/23 03:39:14;;;;;;;13.63;6.27;;;1.20;99.90;;;;;;5039558;28;20216;-67
2021/04/23 03:41:42;;;;;;;17.83;6.00;;;1.20;99.90;;;;;;5040497;28;20185;-68
2021/04/23 03:44:10;;;;;;;15.23;6.47;;;1.10;99.90;;;;;;5035642;28;20189;-68
2021/04/23 03:46:38;;;;;;;15.23;7.03;;;1.10;99.90;;;;;;5035597;28;20255;-67
2021/04/23 03:49:06;;;;;;;19.83;6.33;;;1.10;99.90;;;;;;5031550;28;20399;-67
2021/04/23 03:51:34;;;;;;;14.27;7.17;;;1.00;99.90;;;;;;5029548;28;20426;-67
2021/04/23 03:54:01;;;;;;;17.83;6.63;;;1.00;99.90;;;;;;5039712;28;20223;-67
2021/04/23 03:56:29;;;;;;;14.87;7.00;;;0.90;99.90;;;;;;5037072;28;20216;-67
2021/04/23 03:58:56;;;;;;;22.93;7.43;;;0.90;99.90;;;;;;5042995;28;20178;-68
2021/04/23 04:01:25;;;;;;;17.90;7.00;;;0.80;99.90;;;;;;5036162;28;20386;-65
2021/04/23 04:04:15;;;;;;;15.70;7.13;;;0.80;99.90;;;;;;5033505;28;20185;-67
2021/04/23 04:06:46;;;;;;;17.60;6.90;;;0.80;99.90;;;;;;5030793;28;20318;-68
2021/04/23 04:09:55;;;;;;;13.87;7.50;;;0.80;99.90;;;;;;5038237;28;20177;-67
2021/04/23 04:12:23;;;;;;;20.37;7.10;;;0.80;99.90;;;;;;5040570;28;20197;-68
2021/04/23 04:14:51;;;;;;;30.53;7.90;;;0.90;99.90;;;;;;5038205;28;20201;-68
2021/04/23 04:17:18;;;;;;;20.10;8.23;;;1.00;99.90;;;;;;5030630;28;20221;-68
2021/04/23 04:19:46;;;;;;;18.27;8.43;;;1.10;99.90;;;;;;5032646;28;20215;-67
2021/04/23 04:22:14;;;;;;;18.23;8.10;;;1.30;99.90;;;;;;5032014;28;20204;-67
2021/04/23 04:24:41;;;;;;;19.87;8.73;;;1.30;99.90;;;;;;5030071;28;20185;-68
2021/04/23 04:27:09;;;;;;;20.40;8.40;;;1.20;99.90;;;;;;5040996;28;20256;-68
2021/04/23 04:29:36;;;;;;;23.97;8.47;;;1.20;99.90;;;;;;5052453;28;20189;-67
2021/04/23 04:32:04;;;;;;;23.67;9.37;;;1.20;99.90;;;;;;5054703;28;20181;-68
2021/04/23 04:34:32;;;;;;;30.27;9.77;;;1.30;99.90;;;;;;5035527;28;20452;-68
2021/04/23 04:36:59;;;;;;;23.73;9.43;;;1.40;99.90;;;;;;5038986;28;20208;-67
2021/04/23 04:39:27;;;;;;;18.87;9.07;;;1.40;99.90;;;;;;5015846;28;20318;-65
2021/04/23 04:41:55;;;;;;;22.60;9.80;;;1.40;99.90;;;;;;5037363;28;20196;-65
2021/04/23 04:44:22;;;;;;;25.53;9.87;;;1.40;99.90;;;;;;5038395;28;20185;-65
2021/04/23 04:46:49;;;;;;;17.37;8.67;;;1.50;99.90;;;;;;5034836;28;20202;-66
2021/04/23 04:49:17;;;;;;;24.37;9.60;;;1.50;99.90;;;;;;5040255;28;20185;-66
2021/04/23 04:51:44;;;;;;;23.47;9.40;;;1.40;99.90;;;;;;5038673;28;20253;-65
2021/04/23 04:54:11;;;;;;;26.87;9.83;;;1.40;99.90;;;;;;5035243;28;20182;-66
2021/04/23 04:56:40;;;;;;;21.10;9.30;;;1.40;99.90;;;;;;5042295;28;20223;-66
2021/04/23 04:59:07;;;;;;;23.60;10.00;;;1.50;99.90;;;;;;5033156;28;20185;-65
2021/04/23 05:01:34;;;;;;;29.67;10.03;;;1.60;99.90;;;;;;5039610;28;20269;-66
2021/04/23 05:04:07;;;;;;;30.67;10.53;;;1.60;99.90;;;;;;5051433;28;20181;-65
2021/04/23 05:06:35;;;;;;;20.97;10.33;;;1.70;99.90;;;;;;5040674;28;20181;-66
2021/04/23 05:09:02;;;;;;;26.93;10.43;;;1.70;99.90;;;;;;5034650;28;20413;-65
2021/04/23 05:11:30;;;;;;;29.17;10.83;;;1.80;99.90;;;;;;5037294;28;20185;-65
2021/04/23 05:13:59;;;;;;;21.97;10.00;;;1.80;99.90;;;;;;5034795;28;20182;-66
2021/04/23 05:16:26;;;;;;;29.27;10.83;;;1.80;99.90;;;;;;5031341;28;20284;-66
2021/04/23 05:18:53;;;;;;;28.63;11.00;;;1.80;99.90;;;;;;5026802;28;20272;-66
2021/04/23 05:21:21;;;;;;;26.70;10.50;;;1.90;99.90;;;;;;5039395;28;20185;-66
2021/04/23 05:23:48;;;;;;;35.97;11.33;;;2.00;99.90;;;;;;5036726;28;20205;-66
2021/04/23 05:26:15;;;;;;;39.73;11.53;;;2.10;99.90;;;;;;5040174;28;20236;-66
2021/04/23 05:28:43;;;;;;;32.60;11.83;;;2.30;99.90;;;;;;5038581;28;20181;-66
2021/04/23 05:31:12;;;;;;;30.90;11.37;;;2.40;99.90;;;;;;5038343;28;20201;-66
2021/04/23 05:33:40;;;;;;;23.03;10.63;;;2.50;99.90;;;;;;5038751;28;20189;-66
2021/04/23 05:36:08;;;;;;;32.07;10.97;;;2.80;99.90;;;;;;5033542;28;20205;-66
2021/04/23 05:38:35;;;;;;;27.93;10.10;;;3.30;99.90;;;;;;5035509;28;20189;-66
2021/04/23 05:41:02;;;;;;;26.63;9.40;;;3.70;99.90;;;;;;5036531;28;20622;-67
2021/04/23 05:43:30;;;;;;;21.40;9.47;;;4.10;99.90;;;;;;5034485;28;20177;-66
2021/04/23 05:45:57;;;;;;;26.47;8.83;;;4.40;99.90;;;;;;5039068;28;20186;-66
2021/04/23 05:48:26;;;;;;;20.80;9.17;;;4.80;99.90;;;;;;5039167;28;20205;-66
2021/04/23 05:50:53;;;;;;;21.57;8.50;;;5.10;99.90;;;;;;5041991;28;20461;-66
2021/04/23 05:53:20;;;;;;;21.37;8.80;;;5.50;99.90;;;;;;5035378;28;20178;-66
2021/04/23 05:55:48;;;;;;;20.63;8.73;;;5.80;99.90;;;;;;5036380;28;20222;-66
2021/04/23 05:58:15;;;;;;;25.77;9.23;;;6.10;99.90;;;;;;5034916;28;20354;-66
2021/04/23 06:00:43;;;;;;;24.40;8.57;;;6.30;99.90;;;;;;5031213;28;20189;-66
2021/04/23 06:03:12;;;;;;;22.23;8.83;;;6.70;99.90;;;;;;5033558;28;20483;-67
2021/04/23 06:05:41;;;;;;;19.40;8.73;;;6.90;99.90;;;;;;5039064;28;20183;-66
2021/04/23 06:08:13;;;;;;;21.97;7.87;;;7.00;99.90;;;;;;5037104;28;20177;-66
2021/04/23 06:10:42;;;;;;;17.40;8.13;;;7.30;99.90;;;;;;5049497;28;20186;-67
2021/04/23 06:13:11;;;;;;;19.60;8.40;;;7.40;99.90;;;;;;5030655;28;20248;-66
2021/04/23 06:15:39;;;;;;;20.37;8.27;;;7.30;99.90;;;;;;5037631;28;20205;-66
2021/04/23 06:18:10;;;;;;;14.43;8.03;;;7.50;99.90;;;;;;5031055;28;20276;-66
2021/04/23 06:20:43;;;;;;;16.60;8.33;;;7.70;99.90;;;;;;5032369;28;20213;-66
2021/04/23 06:23:17;;;;;;;17.13;8.20;;;7.90;99.90;;;;;;5038194;28;20203;-67
2021/04/23 06:25:47;;;;;;;16.27;8.17;;;8.00;99.90;;;;;;5036658;28;20430;-66
2021/04/23 06:28:15;;;;;;;18.43;7.97;;;8.40;99.90;;;;;;5036251;28;20223;-66
2021/04/23 06:30:42;;;;;;;13.43;7.70;;;8.50;99.90;;;;;;5027240;28;20186;-66
2021/04/23 06:33:15;;;;;;;14.47;7.30;;;8.80;99.90;;;;;;5041031;28;20208;-66
2021/04/23 06:35:44;;;;;;;17.63;7.53;;;9.10;99.90;;;;;;5045760;28;20217;-66
2021/04/23 06:38:12;;;;;;;17.10;7.50;;;9.10;99.90;;;;;;5027579;28;20189;-66
2021/04/23 06:40:39;;;;;;;20.33;8.17;;;9.10;99.90;;;;;;5033064;28;20192;-66
2021/04/23 06:43:07;;;;;;;16.17;7.80;;;9.10;99.90;;;;;;5038164;28;20337;-66
2021/04/23 06:45:35;;;;;;;18.03;7.87;;;9.40;99.90;;;;;;5040635;28;20176;-66
2021/04/23 06:48:03;;;;;;;12.83;7.47;;;9.70;99.90;;;;;;5037978;28;20193;-67
2021/04/23 06:50:37;;;;;;;14.60;7.57;;;9.70;99.90;;;;;;5038054;28;20284;-67
2021/04/23 06:53:05;;;;;;;16.97;7.13;;;10.20;99.90;;;;;;5038573;28;20361;-67
2021/04/23 06:55:33;;;;;;;14.50;7.17;;;10.10;99.90;;;;;;5040532;28;20228;-67
2021/04/23 06:58:01;;;;;;;15.13;7.27;;;10.40;99.90;;;;;;5038914;28;20235;-67
2021/04/23 07:00:31;;;;;;;14.70;6.77;;;10.70;99.90;;;;;;5041057;28;20178;-67
2021/04/23 07:03:00;;;;;;;14.67;6.60;;;11.10;99.90;;;;;;5035028;28;20198;-67
2021/04/23 07:05:29;;;;;;;15.03;6.50;;;11.40;99.90;;;;;;5028555;28;20213;-67
2021/04/23 07:07:56;;;;;;;10.67;6.13;;;11.50;99.90;;;;;;5026997;28;20201;-67
2021/04/23 07:10:27;;;;;;;7.67;6.03;;;11.80;99.90;;;;;;5039533;28;20189;-67
2021/04/23 07:12:59;;;;;;;8.70;6.13;;;12.10;99.90;;;;;;5039063;28;20713;-67
2021/04/23 07:15:28;;;;;;;12.07;6.27;;;12.10;99.90;;;;;;5033553;28;20225;-67
2021/04/23 07:17:56;;;;;;;7.87;5.30;;;11.80;99.90;;;;;;5034943;28;20239;-67
2021/04/23 07:20:35;;;;;;;10.77;5.33;;;12.30;99.90;;;;;;5042382;28;20215;-69
2021/04/23 07:23:03;;;;;;;10.40;5.70;;;12.80;99.90;;;;;;5031561;28;20190;-67
2021/04/23 07:25:31;;;;;;;8.07;4.80;;;13.50;99.90;;;;;;5038256;28;20213;-67
2021/04/23 07:27:59;;;;;;;12.43;5.40;;;13.50;99.90;;;;;;5030035;28;20346;-67
2021/04/23 07:30:31;;;;;;;8.53;4.50;;;13.20;99.90;;;;;;5033144;28;20262;-67
2021/04/23 07:32:59;;;;;;;8.73;4.40;;;13.00;99.90;;;;;;5035830;28;20492;-67
2021/04/23 07:35:29;;;;;;;11.70;5.00;;;12.60;99.90;;;;;;5039509;28;20228;-67
2021/04/23 07:37:58;;;;;;;8.33;4.67;;;13.10;99.90;;;;;;5034924;28;20198;-67
2021/04/23 07:40:31;;;;;;;12.57;4.60;;;13.60;99.90;;;;;;5034216;28;20235;-68
2021/04/23 07:43:00;;;;;;;8.33;4.40;;;13.50;99.90;;;;;;5035100;28;20247;-68
2021/04/23 07:45:34;;;;;;;8.33;4.53;;;13.40;99.90;;;;;;5058874;28;20308;-68
2021/04/23 07:48:02;;;;;;;12.07;4.47;;;14.00;99.90;;;;;;5038823;28;20212;-67
2021/04/23 07:50:30;;;;;;;13.23;4.57;;;14.40;99.90;;;;;;5039038;28;20199;-68
2021/04/23 07:52:59;;;;;;;7.07;4.13;;;14.60;99.90;;;;;;5032223;28;20354;-68
2021/04/23 07:55:26;;;;;;;12.20;4.40;;;14.80;99.90;;;;;;5045392;28;20221;-68
2021/04/23 07:57:54;;;;;;;8.23;4.43;;;14.90;99.90;;;;;;5041285;28;20330;-68
2021/04/23 08:00:24;;;;;;;7.23;4.20;;;14.60;99.90;;;;;;5041694;28;20187;-67
2021/04/23 08:02:53;;;;;;;5.57;4.20;;;14.20;99.90;;;;;;5034130;28;20248;-68
2021/04/23 08:05:25;;;;;;;5.73;3.97;;;14.50;99.90;;;;;;5029686;28;20178;-67
2021/04/23 08:08:05;;;;;;;11.00;4.30;;;15.00;99.90;;;;;;5041953;28;20317;-68
2021/04/23 08:10:34;;;;;;;9.40;4.13;;;15.40;99.90;;;;;;5034752;28;20338;-68
2021/04/23 08:13:05;;;;;;;11.07;4.53;;;15.60;99.90;;;;;;5036508;28;20208;-69
2021/04/23 08:15:35;;;;;;;9.63;3.83;;;15.70;99.90;;;;;;5029825;28;20489;-68
2021/04/23 08:18:03;;;;;;;8.43;4.03;;;15.70;99.90;;;;;;5040165;28;20244;-68
2021/04/23 08:20:31;;;;;;;8.63;4.30;;;15.80;99.90;;;;;;5041037;28;20190;-68
2021/04/23 08:22:58;;;;;;;6.77;4.00;;;16.00;99.90;;;;;;5039771;28;20201;-68
2021/04/23 08:25:28;;;;;;;9.23;4.10;;;16.50;99.90;;;;;;5034294;28;20194;-68
2021/04/23 08:27:56;;;;;;;9.13;4.47;;;16.70;99.90;;;;;;5035626;28;20268;-69
2021/04/23 08:30:27;;;;;;;8.30;3.93;;;16.70;99.90;;;;;;5044511;28;20185;-69
2021/04/23 08:32:55;;;;;;;8.63;3.83;;;16.40;99.90;;;;;;5040081;28;20240;-68
2021/04/23 08:35:24;;;;;;;6.93;4.30;;;16.60;99.90;;;;;;5041186;28;20296;-66
2021/04/23 08:37:53;;;;;;;10.80;6.83;;;17.30;99.90;;;;;;5044633;28;20193;-68
2021/04/23 08:40:23;;;;;;;8.23;3.73;;;17.30;99.90;;;;;;5034656;28;20261;-69
2021/04/23 08:42:53;;;;;;;9.17;4.07;;;17.60;99.90;;;;;;5038107;28;20181;-68
2021/04/23 08:45:22;;;;;;;5.50;3.63;;;17.60;99.60;;;;;;5033722;28;20367;-69
2021/04/23 08:47:52;;;;;;;12.70;8.07;;;17.20;99.50;;;;;;5039793;28;20181;-68
2021/04/23 08:50:21;;;;;;;10.13;4.37;;;17.90;99.10;;;;;;5034191;28;20192;-68
2021/04/23 08:52:50;;;;;;;8.10;3.83;;;18.00;99.90;;;;;;5045663;28;20190;-68
2021/04/23 08:55:21;;;;;;;6.40;4.27;;;18.50;97.10;;;;;;5042892;28;20240;-69
2021/04/23 08:58:09;;;;;;;8.23;3.97;;;18.20;97.70;;;;;;5037136;28;20191;-68
2021/04/23 09:00:37;;;;;;;5.93;3.87;;;18.60;96.90;;;;;;5034205;28;20328;-68
2021/04/23 09:03:08;;;;;;;6.20;3.60;;;18.30;98.00;;;;;;5041835;28;20289;-68
2021/04/23 09:05:36;;;;;;;5.67;3.03;;;18.40;96.60;;;;;;5032528;28;20213;-68
2021/04/23 09:08:06;;;;;;;7.70;3.60;;;18.30;96.10;;;;;;5040868;28;20178;-68
2021/04/23 09:10:35;;;;;;;8.77;3.90;;;18.70;95.40;;;;;;5041318;28;20349;-68
2021/04/23 09:13:21;;;;;;;5.90;3.53;;;18.70;95.50;;;;;;5048440;28;20818;-68
2021/04/23 09:15:48;;;;;;;8.50;3.97;;;19.10;95.40;;;;;;5041793;28;20209;-68
2021/04/23 09:18:21;;;;;;;10.33;3.87;;;19.30;95.50;;;;;;5038339;28;20237;-68
2021/04/23 09:21:00;;;;;;;4.90;3.50;;;18.70;94.90;;;;;;5038580;28;20208;-69
2021/04/23 09:23:27;;;;;;;8.33;3.60;;;18.90;94.90;;;;;;5037143;28;20179;-69
2021/04/23 09:25:59;;;;;;;7.03;3.77;;;19.20;94.50;;;;;;5029428;28;20179;-67
2021/04/23 09:28:34;;;;;;;8.13;3.50;;;19.80;95.50;;;;;;5041620;28;20246;-66
2021/04/23 09:31:23;;;;;;;5.87;3.73;;;20.10;92.70;;;;;;5039882;28;20185;-68
2021/04/23 09:33:53;;;;;;;5.40;3.10;;;19.50;92.90;;;;;;5032755;28;20205;-68
2021/04/23 09:36:32;;;;;;;7.37;3.40;;;19.70;92.90;;;;;;5038042;28;20321;-68
2021/04/23 09:39:12;;;;;;;6.93;3.47;;;19.60;92.00;;;;;;5035036;28;20190;-68
2021/04/23 09:41:41;;;;;;;4.00;3.60;;;20.00;92.60;;;;;;5040951;28;20242;-69
2021/04/23 09:44:40;;;;;;;7.90;4.17;;;20.00;92.90;;;;;;5040448;28;20176;-69
2021/04/23 09:47:13;;;;;;;9.97;3.80;;;20.20;92.50;;;;;;5031885;28;20200;-69
2021/04/23 09:49:42;;;;;;;7.33;3.60;;;20.20;91.80;;;;;;5039463;28;20219;-69
2021/04/23 09:52:12;;;;;;;8.47;3.67;;;20.30;91.50;;;;;;5036876;28;20250;-68
2021/04/23 09:54:55;;;;;;;6.23;3.60;;;19.30;90.80;;;;;;5020103;28;20218;-69
2021/04/23 09:57:26;;;;;;;5.07;3.97;;;19.30;92.10;;;;;;5044444;28;20187;-68
2021/04/23 09:59:56;;;;;;;6.73;3.90;;;19.70;93.00;;;;;;5040291;28;20187;-69
2021/04/23 10:02:25;;;;;;;7.17;4.10;;;20.60;91.30;;;;;;5037592;28;20299;-69
2021/04/23 10:04:54;;;;;;;6.30;3.90;;;20.80;90.60;;;;;;5034355;28;20184;-68
2021/04/23 10:07:23;;;;;;;7.50;4.30;;;20.40;90.20;;;;;;5036769;28;21108;-68
2021/04/23 10:09:59;;;;;;;9.87;4.17;;;19.70;90.60;;;;;;5040155;28;20175;-69
2021/04/23 10:12:39;;;;;;;11.33;4.07;;;20.00;92.90;;;;;;5032988;28;20186;-69
2021/04/23 10:15:16;;;;;;;6.30;3.60;;;20.10;91.20;;;;;;5040641;28;20220;-69
2021/04/23 10:17:47;;;;;;;5.37;4.17;;;20.50;92.00;;;;;;5036451;28;20243;-68
2021/04/23 10:20:20;;;;;;;5.87;3.97;;;20.60;90.30;;;;;;5030689;28;20193;-69
2021/04/23 10:22:48;;;;;;;6.50;3.80;;;20.80;91.30;;;;;;5038730;28;20181;-68
2021/04/23 10:25:16;;;;;;;10.07;4.10;;;21.20;91.50;;;;;;5040136;28;20226;-69
2021/04/23 10:27:46;;;;;;;7.07;3.87;;;20.30;88.10;;;;;;5037006;28;20242;-68
2021/04/23 10:30:16;;;;;;;6.53;4.03;;;19.40;88.50;;;;;;5034513;28;20191;-68
2021/04/23 10:33:06;;;;;;;5.93;3.83;;;19.30;89.90;;;;;;5039867;28;20444;-69
2021/04/23 10:35:34;;;;;;;5.20;3.40;;;19.60;91.00;;;;;;5038323;28;20215;-69
2021/04/23 10:38:04;;;;;;;5.00;4.10;;;20.30;86.40;;;;;;5033450;28;20392;-69
2021/04/23 10:40:33;;;;;;;6.73;3.63;;;20.50;86.80;;;;;;5041096;28;20192;-69
2021/04/23 10:43:05;;;;;;;7.07;3.70;;;20.70;91.40;;;;;;5037331;28;20183;-69
2021/04/23 10:45:38;;;;;;;4.60;3.47;;;21.10;90.00;;;;;;5038791;28;20204;-69
2021/04/23 10:48:27;;;;;;;4.97;3.40;;;20.90;86.90;;;;;;5034482;28;20235;-68
2021/04/23 10:51:01;;;;;;;4.50;3.63;;;20.30;91.20;;;;;;5031947;28;20306;-69
2021/04/23 10:53:42;;;;;;;7.57;3.77;;;21.00;87.40;;;;;;5044566;28;20325;-68
2021/04/23 10:56:28;;;;;;;3.93;3.43;;;20.00;87.50;;;;;;5031950;28;20222;-68
2021/04/23 10:58:58;;;;;;;11.73;4.00;;;20.10;86.20;;;;;;5036615;28;20182;-68
2021/04/23 11:01:34;;;;;;;5.67;3.37;;;18.90;85.80;;;;;;5037058;28;20189;-68
2021/04/23 11:04:10;;;;;;;6.13;4.00;;;19.00;89.50;;;;;;5036670;28;20185;-69
2021/04/23 11:06:40;;;;;;;7.13;4.03;;;19.70;86.30;;;;;;5035711;28;20189;-68
2021/04/23 11:09:25;;;;;;;8.10;3.90;;;19.80;85.80;;;;;;5030624;28;20341;-68
2021/04/23 11:12:12;;;;;;;6.90;4.03;;;19.60;86.50;;;;;;5032314;28;20226;-68
2021/04/23 11:14:41;;;;;;;7.97;3.97;;;20.00;88.10;;;;;;5037672;28;20439;-68
2021/04/23 11:17:31;;;;;;;8.73;3.77;;;19.90;87.30;;;;;;5032386;28;20331;-67
2021/04/23 11:19:59;;;;;;;8.03;4.17;;;19.50;84.90;;;;;;5035753;28;20185;-68
2021/04/23 11:22:29;;;;;;;6.57;3.93;;;18.80;85.30;;;;;;5044174;28;20425;-67
2021/04/23 11:25:03;;;;;;;8.07;4.17;;;19.00;88.40;;;;;;5037123;28;20186;-68
2021/04/23 11:27:31;;;;;;;7.57;4.33;;;19.50;87.70;;;;;;5047275;28;20185;-68
2021/04/23 11:30:09;;;;;;;8.30;4.10;;;19.10;91.20;;;;;;5042905;28;20494;-68
2021/04/23 11:32:51;;;;;;;7.23;4.53;;;19.50;89.40;;;;;;5057088;28;20192;-68
2021/04/23 11:35:21;;;;;;;8.83;4.30;;;19.50;84.80;;;;;;5035361;28;20450;-68
2021/04/23 11:37:52;;;;;;;10.77;4.60;;;19.10;88.50;;;;;;5033829;28;20178;-68
2021/04/23 11:40:22;;;;;;;9.20;4.50;;;18.80;85.80;;;;;;5030262;28;20194;-68
2021/04/23 11:42:50;;;;;;;8.13;4.80;;;18.80;86.60;;;;;;5034169;28;20240;-68
2021/04/23 11:45:19;;;;;;;7.27;4.60;;;18.40;87.60;;;;;;5030159;28;20350;-68
2021/04/23 11:47:48;;;;;;;8.60;4.90;;;18.30;88.30;;;;;;5028935;28;20188;-67
2021/04/23 11:50:19;;;;;;;6.73;4.87;;;18.30;87.50;;;;;;5044728;28;20248;-68
2021/04/23 11:52:49;;;;;;;8.93;4.57;;;18.10;86.70;;;;;;5033974;28;20196;-68
2021/04/23 11:55:19;;;;;;;9.70;5.00;;;18.00;88.60;;;;;;5045436;28;20322;-68
2021/04/23 11:57:49;;;;;;;7.90;4.70;;;18.50;90.40;;;;;;5045391;28;20197;-68
2021/04/23 12:00:19;;;;;;;7.83;4.77;;;18.70;85.30;;;;;;5056443;28;20196;-68
2021/04/23 12:02:51;;;;;;;11.53;5.00;;;18.20;87.00;;;;;;5038646;28;20185;-68
2021/04/23 12:05:35;;;;;;;11.63;5.23;;;18.00;88.30;;;;;;5039496;28;20190;-68
2021/04/23 12:08:06;;;;;;;9.47;4.60;;;17.80;89.70;;;;;;5032640;28;20186;-69
2021/04/23 12:10:37;;;;;;;16.33;5.40;;;18.00;88.40;;;;;;5051985;28;20212;-68
2021/04/23 12:13:09;;;;;;;11.57;5.53;;;17.60;87.70;;;;;;5047506;28;20403;-68
2021/04/23 12:15:38;;;;;;;10.20;4.90;;;17.10;89.60;;;;;;5046933;28;20212;-68
2021/04/23 12:18:08;;;;;;;15.10;5.43;;;17.40;89.40;;;;;;5059235;28;20222;-68
2021/04/23 12:20:40;;;;;;;8.73;5.50;;;17.60;90.20;;;;;;5040128;28;20473;-68
2021/04/23 12:23:10;;;;;;;10.10;6.07;;;17.30;90.00;;;;;;5030753;28;20224;-68
2021/04/23 12:25:42;;;;;;;12.63;5.97;;;17.80;92.70;;;;;;5027298;28;20182;-69
2021/04/23 12:28:35;;;;;;;6.00;5.07;;;18.10;90.00;;;;;;5042109;28;20206;-68
2021/04/23 12:31:09;;;;;;;9.97;5.77;;;18.10;92.30;;;;;;5032033;28;20194;-68
2021/04/23 12:33:39;;;;;;;10.67;5.87;;;18.30;93.90;;;;;;5036613;28;20182;-67
2021/04/23 12:36:13;;;;;;;10.77;5.43;;;18.50;91.30;;;;;;5052884;28;20222;-67
2021/04/23 12:38:42;;;;;;;13.03;6.30;;;18.30;89.80;;;;;;5026495;28;20352;-67
2021/04/23 12:41:22;;;;;;;10.13;6.13;;;17.90;90.50;;;;;;5038124;28;20245;-67
2021/04/23 12:43:51;;;;;;;13.63;7.30;;;18.00;92.20;;;;;;5036112;28;20195;-67
2021/04/23 12:46:21;;;;;;;12.83;7.43;;;18.10;90.80;;;;;;5039179;28;20186;-67
2021/04/23 12:48:57;;;;;;;14.07;8.33;;;18.40;92.50;;;;;;5030799;28;20260;-67
2021/04/23 12:51:25;;;;;;;12.90;8.23;;;18.70;93.10;;;;;;5038478;28;20192;-67
2021/04/23 12:53:53;;;;;;;21.43;12.70;;;18.40;90.50;;;;;;5041013;28;20183;-67
2021/04/23 12:56:23;;;;;;;29.53;16.63;;;17.90;90.50;;;;;;5026509;28;20222;-67
2021/04/23 12:58:51;;;;;;;31.77;18.80;;;17.30;91.10;;;;;;5033137;28;20188;-66
2021/04/23 13:01:19;;;;;;;24.47;17.77;;;17.50;91.50;;;;;;5027643;28;20668;-67
2021/04/23 13:04:02;;;;;;;31.63;19.00;;;17.50;91.10;;;;;;5040797;28;20182;-67